createdAt,value
2022-12-03T00:00:00.594Z,17.03
2022-12-03T00:02:28.752Z,23.10
2022-12-03T00:04:57.003Z,16.70
2022-12-03T00:07:25.180Z,13.57
2022-12-03T00:09:53.452Z,16.13
2022-12-03T00:12:21.567Z,22.57
2022-12-03T00:14:51.108Z,25.20
2022-12-03T00:17:19.251Z,14.07
2022-12-03T00:19:47.591Z,24.23
2022-12-03T00:22:15.688Z,22.70
2022-12-03T00:24:43.808Z,22.03
2022-12-03T00:27:11.853Z,17.23
2022-12-03T00:29:39.978Z,21.43
2022-12-03T00:32:09.461Z,21.70
2022-12-03T00:34:37.520Z,21.83
2022-12-03T00:37:05.623Z,16.10
2022-12-03T00:39:33.934Z,22.77
2022-12-03T00:42:02.035Z,18.70
2022-12-03T00:44:30.168Z,21.20
2022-12-03T00:46:58.290Z,23.20
2022-12-03T00:49:27.827Z,22.47
2022-12-03T00:51:55.886Z,21.87
2022-12-03T00:54:30.007Z,18.90
2022-12-03T00:57:00.012Z,17.77
2022-12-03T00:59:28.109Z,22.43
2022-12-03T01:01:56.440Z,22.83
2022-12-03T01:04:24.729Z,23.13
2022-12-03T01:06:54.154Z,19.63
2022-12-03T01:09:22.591Z,20.03
2022-12-03T01:11:50.685Z,18.00
2022-12-03T01:14:20.449Z,19.33
2022-12-03T01:16:49.168Z,19.17
2022-12-03T01:19:19.388Z,18.00
2022-12-03T01:21:49.075Z,17.83
2022-12-03T01:24:18.950Z,22.27
2022-12-03T01:26:47.018Z,12.50
2022-12-03T01:29:15.404Z,16.03
2022-12-03T01:32:01.033Z,20.10
2022-12-03T01:34:29.207Z,19.77
2022-12-03T01:36:57.273Z,21.83
2022-12-03T01:39:26.763Z,17.53
2022-12-03T01:41:56.199Z,15.93
2022-12-03T01:44:26.762Z,20.27
2022-12-03T01:46:57.311Z,16.37
2022-12-03T01:49:29.223Z,21.50
2022-12-03T01:51:58.930Z,16.40
2022-12-03T01:54:32.225Z,20.00
2022-12-03T01:57:00.458Z,20.87
2022-12-03T01:59:34.257Z,12.40
2022-12-03T02:02:12.959Z,15.73
2022-12-03T02:04:41.298Z,16.13
2022-12-03T02:07:25.022Z,15.63
2022-12-03T02:09:55.819Z,19.53
2022-12-03T02:12:28.464Z,17.37
2022-12-03T02:14:56.942Z,20.53
2022-12-03T02:17:26.225Z,22.43
2022-12-03T02:19:55.640Z,20.57
2022-12-03T02:22:39.100Z,17.47
2022-12-03T02:25:15.306Z,12.27
2022-12-03T02:27:44.237Z,21.27
2022-12-03T02:30:14.968Z,18.47
2022-12-03T02:32:43.219Z,22.07
2022-12-03T02:35:16.126Z,18.23
2022-12-03T02:37:46.149Z,16.17
2022-12-03T02:40:19.701Z,19.87
2022-12-03T02:42:47.373Z,25.23
2022-12-03T02:45:19.260Z,21.53
2022-12-03T02:47:49.308Z,19.30
2022-12-03T02:50:18.962Z,22.47
2022-12-03T02:52:48.555Z,16.97
2022-12-03T02:55:19.210Z,19.17
2022-12-03T02:57:49.476Z,10.23
2022-12-03T03:00:18.995Z,20.13
2022-12-03T03:02:48.060Z,18.07
2022-12-03T03:05:17.121Z,19.67
2022-12-03T03:07:45.573Z,23.17
2022-12-03T03:10:18.208Z,16.90
2022-12-03T03:12:46.924Z,17.93
2022-12-03T03:15:15.989Z,22.73
2022-12-03T03:17:44.478Z,23.37
2022-12-03T03:20:13.534Z,19.23
2022-12-03T03:22:43.297Z,21.47
2022-12-03T03:25:15.864Z,16.43
2022-12-03T03:27:46.430Z,18.43
2022-12-03T03:30:16.370Z,23.07
2022-12-03T03:32:44.722Z,22.83
2022-12-03T03:35:14.687Z,19.37
2022-12-03T03:37:43.213Z,22.00
2022-12-03T03:40:12.042Z,24.57
2022-12-03T03:42:40.511Z,23.70
2022-12-03T03:45:11.389Z,17.33
2022-12-03T03:47:39.708Z,22.07
2022-12-03T03:50:09.907Z,21.33
2022-12-03T03:52:39.146Z,18.20
2022-12-03T03:55:08.994Z,20.33
2022-12-03T03:57:37.326Z,19.63
2022-12-03T04:00:08.091Z,21.47
2022-12-03T04:02:38.390Z,21.07
2022-12-03T04:05:07.672Z,22.23
2022-12-03T04:07:35.828Z,19.90
2022-12-03T04:10:24.687Z,24.53
2022-12-03T04:12:57.589Z,20.07
2022-12-03T04:15:26.650Z,21.93
2022-12-03T04:18:13.699Z,21.60
2022-12-03T04:20:41.981Z,21.93
2022-12-03T04:23:09.619Z,18.03
2022-12-03T04:25:55.049Z,22.83
2022-12-03T04:28:40.791Z,17.40
2022-12-03T04:31:22.916Z,20.60
2022-12-03T04:34:15.443Z,16.83
2022-12-03T04:36:43.501Z,17.07
2022-12-03T04:39:11.564Z,17.63
2022-12-03T04:41:39.694Z,22.37
2022-12-03T04:44:25.206Z,14.60
2022-12-03T04:46:53.296Z,24.67
2022-12-03T04:49:22.778Z,18.83
2022-12-03T04:51:50.937Z,19.83
2022-12-03T04:54:19.291Z,17.87
2022-12-03T04:56:47.344Z,16.17
2022-12-03T04:59:16.594Z,20.70
2022-12-03T05:01:45.410Z,15.33
2022-12-03T05:04:14.315Z,19.97
2022-12-03T05:06:44.333Z,21.63
2022-12-03T05:09:13.047Z,16.43
2022-12-03T05:11:41.345Z,21.20
2022-12-03T05:14:10.278Z,18.80
2022-12-03T05:16:38.927Z,20.43
2022-12-03T05:19:08.785Z,22.00
2022-12-03T05:21:37.377Z,19.37
2022-12-03T05:24:07.555Z,21.50
2022-12-03T05:26:35.663Z,23.17
2022-12-03T05:29:03.828Z,23.10
2022-12-03T05:31:32.051Z,20.73
2022-12-03T05:34:00.539Z,20.10
2022-12-03T05:36:28.548Z,17.63
2022-12-03T05:38:56.648Z,22.83
2022-12-03T05:41:43.611Z,20.50
2022-12-03T05:44:15.017Z,24.00
2022-12-03T05:46:45.661Z,21.93
2022-12-03T05:49:13.846Z,21.30
2022-12-03T05:51:43.072Z,22.83
2022-12-03T05:54:11.222Z,20.97
2022-12-03T05:56:40.664Z,22.67
2022-12-03T05:59:08.821Z,18.37
2022-12-03T06:01:36.886Z,21.57
2022-12-03T06:04:05.169Z,21.73
2022-12-03T06:06:33.348Z,24.37
2022-12-03T06:09:01.657Z,24.20
2022-12-03T06:11:34.144Z,22.37
2022-12-03T06:14:04.006Z,23.63
2022-12-03T06:16:32.205Z,20.73
2022-12-03T06:19:00.349Z,19.23
2022-12-03T06:21:28.456Z,28.00
2022-12-03T06:23:56.606Z,23.40
2022-12-03T06:26:24.716Z,21.07
2022-12-03T06:28:53.205Z,25.20
2022-12-03T06:31:23.143Z,25.20
2022-12-03T06:33:51.465Z,24.50
2022-12-03T06:36:23.061Z,22.93
2022-12-03T06:38:51.650Z,16.33
2022-12-03T06:41:19.831Z,23.13
2022-12-03T06:43:48.061Z,25.83
2022-12-03T06:46:16.219Z,25.40
2022-12-03T06:48:45.893Z,21.97
2022-12-03T06:51:14.125Z,23.17
2022-12-03T06:53:42.261Z,24.00
2022-12-03T06:56:10.419Z,25.03
2022-12-03T06:58:40.296Z,21.50
2022-12-03T07:01:08.458Z,18.50
2022-12-03T07:03:36.759Z,25.43
2022-12-03T07:06:06.549Z,21.80
2022-12-03T07:08:34.694Z,27.50
2022-12-03T07:11:02.950Z,25.13
2022-12-03T07:13:31.115Z,18.10
2022-12-03T07:15:59.268Z,22.03
2022-12-03T07:18:27.339Z,23.80
2022-12-03T07:20:55.428Z,21.23
2022-12-03T07:23:24.963Z,17.90
2022-12-03T07:25:53.058Z,25.93
2022-12-03T07:28:21.261Z,21.03
2022-12-03T07:30:49.410Z,14.83
2022-12-03T07:33:17.605Z,25.90
2022-12-03T07:35:45.705Z,23.63
2022-12-03T07:38:13.927Z,28.07
2022-12-03T07:40:43.538Z,24.13
2022-12-03T07:43:12.089Z,29.23
2022-12-03T07:45:40.256Z,24.73
2022-12-03T07:48:08.460Z,26.33
2022-12-03T07:50:36.711Z,22.30
2022-12-03T07:53:04.907Z,22.23
2022-12-03T07:55:33.094Z,25.37
2022-12-03T07:58:02.625Z,25.47
2022-12-03T08:00:30.950Z,26.90
2022-12-03T08:02:59.135Z,24.37
2022-12-03T08:05:29.545Z,20.43
2022-12-03T08:08:12.852Z,18.37
2022-12-03T08:10:41.051Z,23.77
2022-12-03T08:13:15.945Z,24.10
2022-12-03T08:15:44.375Z,25.93
2022-12-03T08:18:16.233Z,15.37
2022-12-03T08:20:45.739Z,24.57
2022-12-03T08:23:16.557Z,23.77
2022-12-03T08:25:45.512Z,24.83
2022-12-03T08:28:18.895Z,26.87
2022-12-03T08:30:51.468Z,18.97
2022-12-03T08:33:26.344Z,24.33
2022-12-03T08:35:55.049Z,28.60
2022-12-03T08:38:25.825Z,23.47
2022-12-03T08:40:55.653Z,27.90
2022-12-03T08:43:26.627Z,24.57
2022-12-03T08:45:56.129Z,19.30
2022-12-03T08:48:33.706Z,26.00
2022-12-03T08:51:05.857Z,21.87
2022-12-03T08:53:36.152Z,26.37
2022-12-03T08:56:06.883Z,21.90
2022-12-03T08:58:39.661Z,29.23
2022-12-03T09:01:18.195Z,25.13
2022-12-03T09:03:51.013Z,24.23
2022-12-03T09:06:19.272Z,21.47
2022-12-03T09:08:47.563Z,20.20
2022-12-03T09:11:16.356Z,25.30
2022-12-03T09:13:46.255Z,27.30
2022-12-03T09:16:14.407Z,24.13
2022-12-03T09:18:42.601Z,24.73
2022-12-03T09:21:10.855Z,26.17
2022-12-03T09:23:39.028Z,29.90
2022-12-03T09:26:07.360Z,30.00
2022-12-03T09:28:35.602Z,29.50
2022-12-03T09:31:05.346Z,26.07
2022-12-03T09:33:33.585Z,23.30
2022-12-03T09:36:01.897Z,23.03
2022-12-03T09:38:30.031Z,28.33
2022-12-03T09:40:58.202Z,22.83
2022-12-03T09:43:43.342Z,29.00
2022-12-03T09:46:17.507Z,29.80
2022-12-03T09:48:45.792Z,25.00
2022-12-03T09:51:14.617Z,20.93
2022-12-03T09:53:43.139Z,27.20
2022-12-03T09:56:18.210Z,28.07
2022-12-03T09:58:46.363Z,26.03
2022-12-03T10:01:17.676Z,26.00
2022-12-03T10:03:48.119Z,24.67
2022-12-03T10:06:19.411Z,26.33
2022-12-03T10:08:49.982Z,18.33
2022-12-03T10:11:19.054Z,26.23
2022-12-03T10:13:48.166Z,25.40
2022-12-03T10:16:20.957Z,27.53
2022-12-03T10:18:52.257Z,27.83
2022-12-03T10:21:25.218Z,18.70
2022-12-03T10:24:25.534Z,21.80
2022-12-03T10:26:55.701Z,19.67
2022-12-03T10:29:32.921Z,19.03
2022-12-03T10:32:05.250Z,25.23
2022-12-03T10:34:34.695Z,25.90
2022-12-03T10:37:15.430Z,25.37
2022-12-03T10:39:58.646Z,26.33
2022-12-03T10:42:27.916Z,18.00
2022-12-03T10:45:13.494Z,25.43
2022-12-03T10:47:43.470Z,23.70
2022-12-03T10:50:18.348Z,25.17
2022-12-03T10:52:47.204Z,24.23
2022-12-03T10:55:16.968Z,26.13
2022-12-03T10:57:46.172Z,27.52
2022-12-03T11:00:17.954Z,28.67
2022-12-03T11:02:54.868Z,28.57
2022-12-03T11:05:27.876Z,24.60
2022-12-03T11:07:56.888Z,21.87
2022-12-03T11:10:25.570Z,27.07
2022-12-03T11:13:28.350Z,28.83
2022-12-03T11:15:56.784Z,23.10
2022-12-03T11:19:02.192Z,24.63
2022-12-03T11:21:30.888Z,27.67
2022-12-03T11:24:18.370Z,23.47
2022-12-03T11:27:24.604Z,25.47
2022-12-03T11:29:58.635Z,25.67
2022-12-03T11:33:08.432Z,20.37
2022-12-03T11:35:54.219Z,22.47
2022-12-03T11:38:41.445Z,22.87
2022-12-03T11:41:11.024Z,20.50
2022-12-03T11:44:27.240Z,26.30
2022-12-03T11:46:56.393Z,23.43
2022-12-03T11:49:40.677Z,21.10
2022-12-03T11:52:31.089Z,27.03
2022-12-03T11:55:04.194Z,28.00
2022-12-03T11:57:38.353Z,26.57
2022-12-03T12:00:17.839Z,25.70
2022-12-03T12:02:46.196Z,25.67
2022-12-03T12:05:29.695Z,27.53
2022-12-03T12:08:01.141Z,26.20
2022-12-03T12:10:48.148Z,27.00
2022-12-03T12:13:44.589Z,18.50
2022-12-03T12:16:12.948Z,24.37
2022-12-03T12:18:43.509Z,24.43
2022-12-03T12:21:40.577Z,19.80
2022-12-03T12:24:38.224Z,28.93
2022-12-03T12:27:08.255Z,22.67
2022-12-03T12:29:37.385Z,27.60
2022-12-03T12:32:15.139Z,26.40
2022-12-03T12:34:45.209Z,25.10
2022-12-03T12:37:16.956Z,22.83
2022-12-03T12:39:46.477Z,23.07
2022-12-03T12:42:33.883Z,24.47
2022-12-03T12:45:03.584Z,23.63
2022-12-03T12:47:32.123Z,19.20
2022-12-03T12:50:00.663Z,17.77
2022-12-03T12:52:29.766Z,17.20
2022-12-03T12:55:04.735Z,22.97
2022-12-03T12:57:35.633Z,21.83
2022-12-03T13:00:05.734Z,26.57
2022-12-03T13:02:45.670Z,25.53
2022-12-03T13:05:15.145Z,26.37
2022-12-03T13:07:44.530Z,23.53
2022-12-03T13:10:37.870Z,22.33
2022-12-03T13:13:23.235Z,26.30
2022-12-03T13:15:53.738Z,21.70
2022-12-03T13:18:26.256Z,25.13
2022-12-03T13:20:54.729Z,13.47
2022-12-03T13:23:31.386Z,21.87
2022-12-03T13:26:11.915Z,21.53
2022-12-03T13:28:42.896Z,27.77
2022-12-03T13:31:23.143Z,18.20
2022-12-03T13:33:51.650Z,24.00
2022-12-03T13:36:21.288Z,24.77
2022-12-03T13:38:49.905Z,20.60
2022-12-03T13:41:47.190Z,24.60
2022-12-03T13:44:19.415Z,22.83
2022-12-03T13:46:48.301Z,18.40
2022-12-03T13:49:18.627Z,20.97
2022-12-03T13:51:47.303Z,21.90
2022-12-03T13:54:17.648Z,23.27
2022-12-03T13:56:47.604Z,23.43
2022-12-03T13:59:19.329Z,29.30
2022-12-03T14:01:49.889Z,22.73
2022-12-03T14:04:18.353Z,19.53
2022-12-03T14:06:46.710Z,23.13
2022-12-03T14:09:15.198Z,20.57
2022-12-03T14:12:01.022Z,26.07
2022-12-03T14:14:30.772Z,24.73
2022-12-03T14:17:00.290Z,17.17
2022-12-03T14:19:28.867Z,20.07
2022-12-03T14:21:56.940Z,23.90
2022-12-03T14:24:25.053Z,19.63
2022-12-03T14:26:53.548Z,23.57
2022-12-03T14:29:21.940Z,25.80
2022-12-03T14:31:51.690Z,20.77
2022-12-03T14:34:20.140Z,26.37
2022-12-03T14:36:48.517Z,23.13
2022-12-03T14:39:16.910Z,25.63
2022-12-03T14:42:02.922Z,25.37
2022-12-03T14:44:31.295Z,23.77
2022-12-03T14:47:01.039Z,19.10
2022-12-03T14:49:29.162Z,23.10
2022-12-03T14:51:57.540Z,18.77
2022-12-03T14:54:25.894Z,25.47
2022-12-03T14:56:54.227Z,23.83
2022-12-03T14:59:27.437Z,26.17
2022-12-03T15:01:56.419Z,21.20
2022-12-03T15:04:26.288Z,23.23
2022-12-03T15:06:54.812Z,27.23
2022-12-03T15:09:22.998Z,28.30
2022-12-03T15:11:51.443Z,25.80
2022-12-03T15:14:19.892Z,27.93
2022-12-03T15:16:48.356Z,28.13
2022-12-03T15:19:16.475Z,20.10
2022-12-03T15:21:45.905Z,28.03
2022-12-03T15:24:14.038Z,26.57
2022-12-03T15:26:42.404Z,23.07
2022-12-03T15:29:11.129Z,23.03
2022-12-03T15:31:39.316Z,23.23
2022-12-03T15:34:07.482Z,26.70
2022-12-03T15:36:35.827Z,28.10
2022-12-03T15:39:05.399Z,26.33
2022-12-03T15:41:33.781Z,22.00
2022-12-03T15:44:02.733Z,27.03
2022-12-03T15:46:31.475Z,25.93
2022-12-03T15:49:00.456Z,28.60
2022-12-03T15:51:28.644Z,30.63
2022-12-03T15:53:56.765Z,27.40
2022-12-03T15:56:26.231Z,22.20
2022-12-03T15:58:54.557Z,21.60
2022-12-03T16:01:23.227Z,28.33
2022-12-03T16:03:51.355Z,27.17
2022-12-03T16:06:19.682Z,22.80
2022-12-03T16:08:48.255Z,27.93
2022-12-03T16:11:16.677Z,17.73
2022-12-03T16:13:46.154Z,28.13
2022-12-03T16:16:14.663Z,23.03
2022-12-03T16:18:43.193Z,21.47
2022-12-03T16:21:11.302Z,29.90
2022-12-03T16:23:39.704Z,26.10
2022-12-03T16:26:08.096Z,28.37
2022-12-03T16:28:36.484Z,30.93
2022-12-03T16:31:06.152Z,29.57
2022-12-03T16:33:34.324Z,17.43
2022-12-03T16:36:02.408Z,29.17
2022-12-03T16:38:31.007Z,31.53
2022-12-03T16:40:59.421Z,21.93
2022-12-03T16:43:27.494Z,27.53
2022-12-03T16:46:20.613Z,23.43
2022-12-03T16:48:50.659Z,26.53
2022-12-03T16:51:20.020Z,28.90
2022-12-03T16:53:48.555Z,30.03
2022-12-03T16:56:16.867Z,27.93
2022-12-03T16:58:45.579Z,20.13
2022-12-03T17:01:13.853Z,26.50
2022-12-03T17:03:42.296Z,28.90
2022-12-03T17:06:11.759Z,27.57
2022-12-03T17:08:44.390Z,26.27
2022-12-03T17:11:15.517Z,27.73
2022-12-03T17:13:43.629Z,28.50
2022-12-03T17:16:11.769Z,24.47
2022-12-03T17:18:39.978Z,18.43
2022-12-03T17:21:08.375Z,28.53
2022-12-03T17:23:37.807Z,30.37
2022-12-03T17:26:06.226Z,26.90
2022-12-03T17:28:34.436Z,26.00
2022-12-03T17:31:02.824Z,30.73
2022-12-03T17:33:30.912Z,29.23
2022-12-03T17:35:59.120Z,31.17
2022-12-03T17:38:27.539Z,28.83
2022-12-03T17:40:57.049Z,30.90
2022-12-03T17:43:25.167Z,33.57
2022-12-03T17:45:53.556Z,29.77
2022-12-03T17:48:21.776Z,31.57
2022-12-03T17:50:50.196Z,25.10
2022-12-03T17:53:18.348Z,33.83
2022-12-03T17:55:46.967Z,35.37
2022-12-03T17:58:16.404Z,32.97
2022-12-03T18:00:44.736Z,32.43
2022-12-03T18:03:12.815Z,34.00
2022-12-03T18:05:41.645Z,34.93
2022-12-03T18:08:09.835Z,37.43
2022-12-03T18:10:37.976Z,36.07
2022-12-03T18:13:06.088Z,33.17
2022-12-03T18:15:35.809Z,34.33
2022-12-03T18:18:04.004Z,29.10
2022-12-03T18:20:32.269Z,35.50
2022-12-03T18:23:00.454Z,28.80
2022-12-03T18:25:29.305Z,35.23
2022-12-03T18:27:57.685Z,30.97
2022-12-03T18:30:26.075Z,32.13
2022-12-03T18:32:55.655Z,28.23
2022-12-03T18:35:23.811Z,30.60
2022-12-03T18:37:52.598Z,32.80
2022-12-03T18:40:24.700Z,30.53
2022-12-03T18:42:52.857Z,32.00
2022-12-03T18:45:21.026Z,32.93
2022-12-03T18:47:49.240Z,33.80
2022-12-03T18:50:19.022Z,35.13
2022-12-03T18:52:47.120Z,35.03
2022-12-03T18:55:19.045Z,38.10
2022-12-03T18:57:47.423Z,36.40
2022-12-03T19:00:16.518Z,36.37
2022-12-03T19:05:35.647Z,31.17
2022-12-03T19:08:08.903Z,37.80
2022-12-03T19:10:37.046Z,36.10
2022-12-03T19:13:05.284Z,38.90
2022-12-03T19:15:33.410Z,38.13
2022-12-03T19:18:01.540Z,41.23
2022-12-03T19:20:29.579Z,33.50
2022-12-03T19:22:59.042Z,31.13
2022-12-03T19:25:27.143Z,44.63
2022-12-03T19:27:56.997Z,43.07
2022-12-03T19:30:25.030Z,39.37
2022-12-03T19:32:53.140Z,42.07
2022-12-03T19:35:22.065Z,41.27
2022-12-03T19:37:50.652Z,39.33
2022-12-03T19:40:20.380Z,32.67
2022-12-03T19:42:48.542Z,31.80
2022-12-03T19:45:16.980Z,39.47
2022-12-03T19:47:45.023Z,34.83
2022-12-03T19:50:22.334Z,39.83
2022-12-03T19:52:51.212Z,39.00
2022-12-03T19:55:20.958Z,38.33
2022-12-03T19:57:49.192Z,37.57
2022-12-03T20:00:17.869Z,35.47
2022-12-03T20:02:46.059Z,36.37
2022-12-03T20:05:14.214Z,35.30
2022-12-03T20:07:42.355Z,40.50
2022-12-03T20:10:11.171Z,37.50
2022-12-03T20:12:40.733Z,39.27
2022-12-03T20:15:09.389Z,39.27
2022-12-03T20:17:37.805Z,19.70
2022-12-03T20:20:07.185Z,35.17
2022-12-03T20:22:35.330Z,28.67
2022-12-03T20:25:03.746Z,37.27
2022-12-03T20:27:32.491Z,35.93
2022-12-03T20:30:01.984Z,33.93
2022-12-03T20:32:30.073Z,29.20
2022-12-03T20:34:58.123Z,27.03
2022-12-03T20:37:26.217Z,35.97
2022-12-03T20:39:54.393Z,29.33
2022-12-03T20:42:22.657Z,36.63
2022-12-03T20:44:52.804Z,39.50
2022-12-03T20:47:22.446Z,37.10
2022-12-03T20:49:50.788Z,37.23
2022-12-03T20:52:19.180Z,41.13
2022-12-03T20:54:47.233Z,35.77
2022-12-03T20:57:15.299Z,35.73
2022-12-03T20:59:43.382Z,35.63
2022-12-03T21:02:12.016Z,29.43
2022-12-03T21:04:41.668Z,34.00
2022-12-03T21:07:09.794Z,37.10
2022-12-03T21:09:37.966Z,30.50
2022-12-03T21:12:06.273Z,35.83
2022-12-03T21:14:35.602Z,32.47
2022-12-03T21:17:08.942Z,35.33
2022-12-03T21:19:38.020Z,35.30
2022-12-03T21:22:09.412Z,26.27
2022-12-03T21:24:37.611Z,39.70
2022-12-03T21:27:06.028Z,35.87
2022-12-03T21:29:34.132Z,30.80
2022-12-03T21:32:02.219Z,26.37
2022-12-03T21:34:36.143Z,34.87
2022-12-03T21:37:05.383Z,30.47
2022-12-03T21:39:35.028Z,33.17
2022-12-03T21:42:34.800Z,33.23
2022-12-03T21:44:51.278Z,30.03
2022-12-03T21:47:19.733Z,34.30
2022-12-03T21:49:47.851Z,34.97
2022-12-03T21:52:15.946Z,34.07
2022-12-03T21:54:45.477Z,32.93
2022-12-03T21:57:13.595Z,35.47
2022-12-03T21:59:41.695Z,23.73
2022-12-03T22:02:11.180Z,38.67
2022-12-03T22:04:39.785Z,24.57
2022-12-03T22:07:07.883Z,29.47
2022-12-03T22:09:35.972Z,34.67
2022-12-03T22:12:05.886Z,33.40
2022-12-03T22:14:33.936Z,34.10
2022-12-03T22:17:02.071Z,39.10
2022-12-03T22:19:30.260Z,40.43
2022-12-03T22:21:58.323Z,37.33
2022-12-03T22:24:26.511Z,35.43
2022-12-03T22:26:54.968Z,33.93
2022-12-03T22:29:24.442Z,36.40
2022-12-03T22:31:52.713Z,30.10
2022-12-03T22:34:20.796Z,33.90
2022-12-03T22:36:49.003Z,29.37
2022-12-03T22:39:17.097Z,33.13
2022-12-03T22:41:45.234Z,36.47
2022-12-03T22:44:13.296Z,36.57
2022-12-03T22:46:42.824Z,34.37
2022-12-03T22:49:13.949Z,38.53
2022-12-03T22:51:42.236Z,33.27
2022-12-03T22:54:11.879Z,30.57
2022-12-03T22:56:40.018Z,35.73
2022-12-03T22:59:08.366Z,30.30
2022-12-03T23:01:38.764Z,33.47
2022-12-03T23:04:09.950Z,30.43
2022-12-03T23:06:39.089Z,25.40
2022-12-03T23:09:08.852Z,30.10
2022-12-03T23:11:37.462Z,29.20
2022-12-03T23:14:05.771Z,34.23
2022-12-03T23:16:34.832Z,31.23
2022-12-03T23:19:04.051Z,31.70
2022-12-03T23:21:35.234Z,35.33
2022-12-03T23:24:05.905Z,30.23
2022-12-03T23:26:36.587Z,35.23
2022-12-03T23:29:05.386Z,37.20
2022-12-03T23:31:34.353Z,34.27
2022-12-03T23:34:03.230Z,27.40
2022-12-03T23:36:34.542Z,18.17
2022-12-03T23:39:02.741Z,35.33
2022-12-03T23:41:30.904Z,34.40
2022-12-03T23:43:58.976Z,26.20
2022-12-03T23:46:28.459Z,32.80
2022-12-03T23:48:58.453Z,35.83
2022-12-03T23:51:27.388Z,30.03
2022-12-03T23:53:57.843Z,31.80
2022-12-03T23:56:28.220Z,26.23
2022-12-03T23:58:57.180Z,31.50
